Time;durP1;ratioP1;P1;durP2;ratioP2;P2;SDS_P1;SDS_P2;PMS_P1;PMS_P2;Temp;Humidity;BMP_temperature;BMP_pressure;BME280_temperature;BME280_humidity;BME280_pressure;Samples;Min_cycle;Max_cycle;Signal;HPM_P1;HPM_P2
2022/11/13 00:02:06;;;;;;;3.27;3.03;;;;;;;22.14;52.45;98582.63;5026233;28;20581;-31
2022/11/13 00:04:33;;;;;;;2.80;2.60;;;;;;;22.20;52.52;98593.13;5029063;28;20288;-31
2022/11/13 00:06:59;;;;;;;3.40;3.10;;;;;;;22.22;52.34;98589.81;5032965;28;20196;-31
2022/11/13 00:09:26;;;;;;;3.13;2.90;;;;;;;22.22;52.66;98591.50;5027526;28;20506;-32
2022/11/13 00:11:53;;;;;;;3.47;3.17;;;;;;;22.21;52.55;98592.31;5022793;28;20198;-31
2022/11/13 00:14:19;;;;;;;3.00;2.80;;;;;;;22.23;52.69;98590.69;5026264;28;20209;-31
2022/11/13 00:16:46;;;;;;;3.30;3.00;;;;;;;22.23;52.91;98583.03;5027026;28;20221;-31
2022/11/13 00:19:12;;;;;;;3.40;3.10;;;;;;;22.24;52.48;98584.75;5027859;28;20202;-31
2022/11/13 00:21:39;;;;;;;3.30;3.00;;;;;;;22.23;52.61;98577.91;5030324;28;20201;-31
2022/11/13 00:24:05;;;;;;;2.90;2.70;;;;;;;22.22;52.39;98581.25;5033166;28;20222;-31
2022/11/13 00:26:32;;;;;;;3.00;2.80;;;;;;;22.22;52.32;98574.44;5029226;28;20668;-32
2022/11/13 00:29:00;;;;;;;3.17;2.97;;;;;;;22.19;52.28;98568.31;5027070;28;20209;-31
2022/11/13 00:31:27;;;;;;;3.67;3.37;;;;;;;22.20;52.58;98563.25;5027026;28;20194;-31
2022/11/13 00:33:53;;;;;;;3.37;3.07;;;;;;;22.22;52.34;98563.31;5026605;28;20226;-32
2022/11/13 00:36:40;;;;;;;3.53;3.23;;;;;;;22.21;52.27;98566.69;5028142;28;20623;-31
2022/11/13 00:39:07;;;;;;;3.20;3.00;;;;;;;22.17;52.16;98563.13;5029040;28;20683;-31
2022/11/13 00:41:33;;;;;;;3.10;2.90;;;;;;;22.20;52.53;98567.53;5023573;28;20199;-31
2022/11/13 00:44:00;;;;;;;2.97;2.77;;;;;;;22.18;52.25;98559.78;5027179;28;20221;-31
2022/11/13 00:46:26;;;;;;;2.97;2.77;;;;;;;22.16;52.90;98551.13;5027099;28;20198;-31
2022/11/13 00:48:53;;;;;;;3.17;2.87;;;;;;;22.19;52.66;98555.50;5026800;28;21915;-31
2022/11/13 00:51:20;;;;;;;3.30;3.00;;;;;;;22.16;52.59;98552.81;5022857;28;20209;-31
2022/11/13 00:53:46;;;;;;;3.07;2.87;;;;;;;22.19;52.45;98551.28;5025671;28;20225;-31
2022/11/13 00:56:13;;;;;;;3.50;3.23;;;;;;;22.14;52.56;98550.19;5030211;28;20467;-31
2022/11/13 00:58:39;;;;;;;3.10;2.90;;;;;;;22.19;52.71;98558.06;5028073;28;20224;-32
2022/11/13 01:01:11;;;;;;;3.17;2.93;;;;;;;22.20;52.52;98545.31;5028245;28;20198;-31
2022/11/13 01:03:37;;;;;;;2.97;2.77;;;;;;;22.12;52.38;98528.78;5025917;28;20214;-31
2022/11/13 01:06:13;;;;;;;2.70;2.50;;;;;;;22.19;52.68;98541.03;5026187;28;20209;-31
2022/11/13 01:08:40;;;;;;;3.10;2.90;;;;;;;22.20;52.61;98534.22;5023994;28;20220;-31
2022/11/13 01:11:11;;;;;;;2.90;2.70;;;;;;;22.18;52.67;98531.59;5030938;28;20204;-31
2022/11/13 01:13:39;;;;;;;2.90;2.70;;;;;;;22.21;52.48;98533.41;5024329;28;20239;-31
2022/11/13 01:16:07;;;;;;;2.87;2.67;;;;;;;22.22;52.52;98530.03;5028166;28;20211;-31
2022/11/13 01:18:33;;;;;;;2.97;2.77;;;;;;;22.21;52.35;98525.72;5023772;28;20194;-31
2022/11/13 01:21:11;;;;;;;2.77;2.57;;;;;;;22.20;52.46;98524.84;5027494;28;20202;-31
2022/11/13 01:23:37;;;;;;;3.10;2.90;;;;;;;22.20;52.59;98521.44;5020455;28;20217;-31
2022/11/13 01:26:15;;;;;;;3.03;2.83;;;;;;;22.20;52.57;98516.31;5028423;28;20702;-31
2022/11/13 01:28:41;;;;;;;3.20;2.90;;;;;;;22.17;52.48;98508.50;5030896;28;20682;-31
2022/11/13 01:31:10;;;;;;;3.07;2.87;;;;;;;22.19;52.29;98510.31;5029726;28;20232;-31
2022/11/13 01:33:36;;;;;;;3.03;2.83;;;;;;;22.19;52.42;98509.41;5021486;28;20236;-31
2022/11/13 01:36:06;;;;;;;2.97;2.77;;;;;;;22.19;52.33;98501.72;5029512;28;20241;-31
2022/11/13 01:38:32;;;;;;;3.10;2.90;;;;;;;22.19;52.26;98501.72;5027821;28;20197;-32
2022/11/13 01:41:03;;;;;;;2.90;2.70;;;;;;;22.17;52.50;98508.50;5029120;28;20358;-31
2022/11/13 01:43:36;;;;;;;3.07;2.87;;;;;;;22.12;52.47;98486.94;5021653;28;20225;-31
2022/11/13 01:46:11;;;;;;;2.93;2.73;;;;;;;22.17;52.50;98494.00;5029392;28;20210;-31
2022/11/13 01:48:40;;;;;;;2.83;2.63;;;;;;;22.11;52.46;98478.38;5055893;28;20227;-31
2022/11/13 01:51:12;;;;;;;3.00;2.80;;;;;;;22.05;52.51;98469.56;5026317;28;20598;-31
2022/11/13 01:53:38;;;;;;;3.00;2.80;;;;;;;22.12;52.44;98481.81;5020553;28;20370;-31
2022/11/13 01:56:05;;;;;;;3.13;2.93;;;;;;;22.05;52.70;98464.47;5028415;28;20197;-31
2022/11/13 01:58:32;;;;;;;3.00;2.80;;;;;;;22.07;52.65;98467.94;5028311;28;20293;-31
2022/11/13 02:00:58;;;;;;;2.70;2.50;;;;;;;22.12;52.74;98471.56;5039516;28;20216;-31
2022/11/13 02:03:25;;;;;;;3.03;2.80;;;;;;;22.12;52.27;98466.44;5031370;28;20595;-31
2022/11/13 02:05:51;;;;;;;2.93;2.73;;;;;;;;;;5032012;28;20210;-31
2022/11/13 02:08:18;;;;;;;2.70;2.50;;;;;;;22.04;52.70;98453.34;5028276;28;20221;-31
2022/11/13 02:10:44;;;;;;;2.80;2.60;;;;;;;21.96;52.50;98441.88;5027840;28;20194;-31
2022/11/13 02:13:11;;;;;;;2.60;2.40;;;;;;;22.16;52.54;98476.88;5032461;28;20217;-31
2022/11/13 02:15:37;;;;;;;2.60;2.40;;;;;;;22.04;52.83;98447.31;5030226;28;20714;-32
2022/11/13 02:18:04;;;;;;;2.77;2.57;;;;;;;22.11;52.68;98454.47;5022992;28;20682;-31
2022/11/13 02:20:40;;;;;;;2.93;2.73;;;;;;;22.17;52.43;98463.25;5014857;28;20205;-31
2022/11/13 02:23:13;;;;;;;2.70;2.50;;;;;;;22.17;52.43;98450.47;5029064;28;20221;-31
2022/11/13 02:25:40;;;;;;;2.70;2.50;;;;;;;22.13;52.60;98448.59;5025958;28;20667;-31
2022/11/13 02:28:07;;;;;;;2.60;2.40;;;;;;;22.17;52.20;98441.94;5040017;28;20202;-31
2022/11/13 02:30:34;;;;;;;2.90;2.70;;;;;;;22.15;52.43;98436.75;5029827;28;20206;-31
2022/11/13 02:33:00;;;;;;;2.63;2.43;;;;;;;22.16;52.45;98437.59;5029972;28;20231;-32
2022/11/13 02:35:30;;;;;;;3.17;2.97;;;;;;;22.06;52.41;98427.78;5025373;28;20214;-31
2022/11/13 02:38:00;;;;;;;2.83;2.63;;;;;;;22.15;52.67;98435.84;5028784;28;20228;-31
2022/11/13 02:40:27;;;;;;;2.90;2.70;;;;;;;22.13;52.64;98427.22;5025166;28;20202;-32
2022/11/13 02:42:54;;;;;;;3.00;2.80;;;;;;;22.13;52.68;98422.09;5038068;28;20229;-31
2022/11/13 02:45:20;;;;;;;3.00;2.80;;;;;;;22.13;52.52;98415.31;5028276;28;20194;-31
2022/11/13 02:47:47;;;;;;;3.20;3.00;;;;;;;22.13;52.79;98419.53;5025141;28;20206;-31
2022/11/13 02:50:13;;;;;;;2.90;2.70;;;;;;;22.12;52.24;98415.25;5027004;28;20194;-31
2022/11/13 02:52:40;;;;;;;2.60;2.40;;;;;;;22.14;52.74;98416.19;5035126;28;20216;-31
2022/11/13 02:55:07;;;;;;;2.87;2.67;;;;;;;22.13;52.57;98417.00;5029798;28;20224;-31
2022/11/13 02:57:33;;;;;;;2.83;2.63;;;;;;;22.13;52.64;98417.88;5024255;28;20198;-31
2022/11/13 03:00:00;;;;;;;3.10;2.90;;;;;;;22.12;52.75;98411.00;5026723;28;20205;-31
2022/11/13 03:02:27;;;;;;;2.67;2.47;;;;;;;22.14;52.55;98411.94;5028601;28;20218;-31
2022/11/13 03:04:53;;;;;;;2.70;2.50;;;;;;;22.14;52.56;98405.97;5025761;28;20198;-31
2022/11/13 03:07:38;;;;;;;2.80;2.60;;;;;;;22.14;52.20;98411.06;5029461;28;20208;-31
2022/11/13 03:10:05;;;;;;;2.67;2.47;;;;;;;22.15;52.57;98415.38;5026879;28;20214;-31
2022/11/13 03:12:32;;;;;;;2.80;2.60;;;;;;;22.15;52.60;98412.81;5029031;28;20595;-31
2022/11/13 03:14:59;;;;;;;3.17;2.70;;;;;;;22.14;52.39;98414.50;5025276;28;20221;-31
2022/11/13 03:17:25;;;;;;;2.40;2.30;;;;;;;22.15;52.37;98408.56;5022505;28;20206;-31
2022/11/13 03:19:52;;;;;;;4.13;2.63;;;;;;;22.15;52.39;98410.25;5025119;28;20205;-31
2022/11/13 03:22:18;;;;;;;2.77;2.57;;;;;;;22.13;52.44;98402.50;5025655;28;20591;-31
2022/11/13 03:24:45;;;;;;;2.90;2.70;;;;;;;22.13;52.14;98404.19;5027795;28;20198;-31
2022/11/13 03:27:11;;;;;;;2.47;2.37;;;;;;;22.15;52.42;98407.69;5026811;28;20221;-31
2022/11/13 03:29:38;;;;;;;3.00;2.80;;;;;;;22.13;52.60;98399.06;5030951;28;20208;-31
2022/11/13 03:32:05;;;;;;;2.77;2.57;;;;;;;22.14;52.51;98403.41;5024761;28;20202;-31
2022/11/13 03:34:31;;;;;;;3.30;3.00;;;;;;;22.08;52.56;98387.78;5029071;28;20220;-31
2022/11/13 03:36:58;;;;;;;2.80;2.60;;;;;;;22.11;52.70;98391.31;5027184;28;20202;-31
2022/11/13 03:39:24;;;;;;;2.90;2.70;;;;;;;22.12;52.38;98393.09;5027526;28;20209;-32
2022/11/13 03:41:51;;;;;;;2.83;2.63;;;;;;;22.12;52.65;98387.09;5026307;28;20291;-31
2022/11/13 03:44:17;;;;;;;2.77;2.57;;;;;;;22.11;53.01;98382.78;5034538;28;20196;-31
2022/11/13 03:46:43;;;;;;;2.57;2.37;;;;;;;22.12;52.52;98382.84;5024578;28;20321;-32
2022/11/13 03:49:10;;;;;;;2.80;2.60;;;;;;;22.13;52.79;98378.59;5027623;28;20205;-31
2022/11/13 03:51:36;;;;;;;3.00;2.80;;;;;;;22.12;52.57;98366.59;5023326;28;20205;-31
2022/11/13 03:54:03;;;;;;;2.87;2.67;;;;;;;22.09;52.67;98358.81;5030252;28;20592;-31
2022/11/13 03:56:29;;;;;;;2.77;2.57;;;;;;;22.12;52.44;98364.94;5028538;28;20205;-31
2022/11/13 03:58:56;;;;;;;2.83;2.63;;;;;;;22.14;52.31;98354.75;5027085;28;20206;-31
2022/11/13 04:01:22;;;;;;;2.67;2.47;;;;;;;22.11;52.87;98352.91;5027721;28;20692;-31
2022/11/13 04:03:49;;;;;;;2.60;2.40;;;;;;;22.15;52.58;98356.50;5030068;28;20221;-31
2022/11/13 04:06:16;;;;;;;2.70;2.50;;;;;;;22.15;52.51;98348.81;5023906;28;20194;-31
2022/11/13 04:08:42;;;;;;;2.67;2.47;;;;;;;22.12;52.47;98339.31;5025992;28;20208;-31
2022/11/13 04:11:10;;;;;;;3.03;2.83;;;;;;;22.14;52.49;98350.47;5029072;28;20373;-31
2022/11/13 04:13:37;;;;;;;2.90;2.70;;;;;;;22.07;52.45;98327.13;5031649;28;20704;-31
2022/11/13 04:16:04;;;;;;;2.70;2.50;;;;;;;22.15;52.58;98336.00;5024494;28;20217;-31
2022/11/13 04:18:30;;;;;;;2.90;2.70;;;;;;;22.13;52.45;98335.06;5025852;28;20206;-31
2022/11/13 04:21:00;;;;;;;2.80;2.60;;;;;;;22.14;52.75;98331.72;5023585;28;20231;-31
2022/11/13 04:23:27;;;;;;;2.37;2.20;;;;;;;22.13;52.59;98333.38;5029260;28;20228;-31
2022/11/13 04:25:53;;;;;;;5.97;2.60;;;;;;;22.12;52.84;98331.66;5025846;28;20201;-31
2022/11/13 04:28:20;;;;;;;3.07;2.87;;;;;;;22.11;52.82;98332.44;5020716;28;20205;-32
2022/11/13 04:30:47;;;;;;;2.63;2.43;;;;;;;22.10;52.79;98327.25;5026526;28;20197;-31
2022/11/13 04:33:13;;;;;;;2.80;2.60;;;;;;;22.12;52.69;98329.09;5022081;28;20230;-31
2022/11/13 04:35:44;;;;;;;2.50;2.30;;;;;;;;;;5027094;28;20221;-32
2022/11/13 04:38:11;;;;;;;2.47;2.27;;;;;;;22.10;52.68;98323.03;5022939;28;20195;-32
2022/11/13 04:40:38;;;;;;;2.53;2.33;;;;;;;22.12;52.78;98315.41;5024888;28;20197;-31
2022/11/13 04:43:05;;;;;;;2.63;2.43;;;;;;;22.12;52.69;98311.16;5029447;28;20224;-31
2022/11/13 04:45:31;;;;;;;2.70;2.50;;;;;;;22.13;52.77;98312.91;5023764;28;20193;-31
2022/11/13 04:47:58;;;;;;;2.90;2.70;;;;;;;22.14;52.75;98313.78;5027571;28;20198;-31
2022/11/13 04:50:24;;;;;;;2.50;2.30;;;;;;;22.11;52.62;98305.97;5030963;28;20194;-31
2022/11/13 04:52:51;;;;;;;2.70;2.50;;;;;;;22.13;52.66;98312.00;5026668;28;20714;-31
2022/11/13 04:55:17;;;;;;;2.60;2.40;;;;;;;22.14;52.60;98308.66;5022770;28;20229;-31
2022/11/13 04:57:44;;;;;;;2.67;2.47;;;;;;;22.14;52.60;98311.22;5026017;28;20198;-31
2022/11/13 05:00:11;;;;;;;2.53;2.33;;;;;;;22.13;52.63;98305.22;5031041;28;20233;-30
2022/11/13 05:02:38;;;;;;;2.70;2.40;;;;;;;22.10;52.77;98299.97;5028646;28;20332;-31
2022/11/13 05:05:04;;;;;;;2.60;2.40;;;;;;;22.11;52.74;98293.19;5026535;28;20201;-31
2022/11/13 05:07:31;;;;;;;2.60;2.40;;;;;;;22.13;52.66;98296.66;5030550;28;20198;-31
2022/11/13 05:09:57;;;;;;;2.60;2.40;;;;;;;22.13;52.85;98294.97;5029792;28;20208;-31
2022/11/13 05:12:24;;;;;;;2.60;2.40;;;;;;;22.12;52.98;98300.94;5030659;28;20241;-32
2022/11/13 05:14:50;;;;;;;2.60;2.40;;;;;;;22.08;52.69;98295.63;5025789;28;20597;-31
2022/11/13 05:17:17;;;;;;;2.53;2.33;;;;;;;22.11;52.75;98299.16;5023277;28;20464;-31
2022/11/13 05:19:43;;;;;;;2.60;2.40;;;;;;;22.12;52.79;98290.69;5026395;28;20205;-32
2022/11/13 05:22:10;;;;;;;2.80;2.60;;;;;;;22.09;52.67;98287.13;5032862;28;20225;-32
2022/11/13 05:24:37;;;;;;;2.93;2.73;;;;;;;22.11;52.83;98296.59;5028775;28;20560;-31
2022/11/13 05:27:03;;;;;;;2.77;2.57;;;;;;;22.11;52.79;98285.50;5024483;28;20208;-31
2022/11/13 05:29:30;;;;;;;2.40;2.20;;;;;;;22.11;52.68;98281.22;5054403;28;20205;-31
2022/11/13 05:31:56;;;;;;;2.80;2.60;;;;;;;22.12;52.86;98272.75;5030825;28;20687;-32
2022/11/13 05:34:23;;;;;;;2.50;2.37;;;;;;;22.12;52.56;98270.19;5029899;28;20204;-31
2022/11/13 05:36:49;;;;;;;2.80;2.60;;;;;;;22.10;52.68;98268.38;5029740;28;20210;-31
2022/11/13 05:39:16;;;;;;;2.77;2.57;;;;;;;22.10;52.77;98259.03;5034105;28;20668;-32
2022/11/13 05:41:42;;;;;;;2.60;2.40;;;;;;;22.13;52.54;98260.81;5031545;28;20197;-31
2022/11/13 05:44:09;;;;;;;2.53;2.33;;;;;;;22.13;52.61;98271.94;5030089;28;20226;-31
2022/11/13 05:46:35;;;;;;;2.43;2.30;;;;;;;22.10;52.60;98266.69;5031344;28;20583;-31
2022/11/13 05:49:02;;;;;;;2.67;2.47;;;;;;;22.08;52.59;98263.19;5028770;28;20212;-31
2022/11/13 05:51:30;;;;;;;2.87;2.67;;;;;;;22.13;52.52;98266.81;5032240;28;20588;-31
2022/11/13 05:53:57;;;;;;;2.67;2.47;;;;;;;22.12;52.74;98262.53;5025534;28;20751;-31
2022/11/13 05:56:28;;;;;;;2.77;2.57;;;;;;;22.12;52.56;98275.31;5031196;28;20216;-31
2022/11/13 05:58:55;;;;;;;2.67;2.47;;;;;;;22.07;52.63;98258.00;5012605;28;20217;-31
2022/11/13 06:01:35;;;;;;;2.57;2.37;;;;;;;22.11;52.69;98263.31;5030020;28;20710;-31
2022/11/13 06:04:02;;;;;;;2.67;2.43;;;;;;;22.11;52.76;98260.75;5026635;28;20719;-31
2022/11/13 06:06:29;;;;;;;2.80;2.60;;;;;;;22.11;52.77;98265.03;5030392;28;20193;-31
2022/11/13 06:08:56;;;;;;;2.50;2.30;;;;;;;22.11;52.78;98262.47;5028981;28;20202;-31
2022/11/13 06:11:24;;;;;;;2.60;2.40;;;;;;;22.05;52.83;98245.16;5032206;28;20220;-31
2022/11/13 06:13:51;;;;;;;2.60;2.40;;;;;;;22.11;52.66;98254.78;5027547;28;20603;-31
2022/11/13 06:16:23;;;;;;;2.60;2.40;;;;;;;22.09;52.61;98254.72;5027493;28;20214;-31
2022/11/13 06:18:49;;;;;;;2.80;2.60;;;;;;;;;;5025921;28;20209;-31
2022/11/13 06:21:18;;;;;;;2.73;2.53;;;;;;;22.11;52.69;98249.66;5027775;28;20193;-31
2022/11/13 06:23:44;;;;;;;2.53;2.33;;;;;;;22.11;52.66;98249.66;5033045;28;20221;-31
2022/11/13 06:26:14;;;;;;;2.60;2.40;;;;;;;22.11;52.77;98250.50;5027400;28;20616;-31
2022/11/13 06:28:40;;;;;;;2.50;2.30;;;;;;;22.10;52.62;98243.66;5025547;28;20205;-31
2022/11/13 06:31:29;;;;;;;2.40;2.20;;;;;;;22.12;52.65;98244.59;5022999;28;20289;-31
2022/11/13 06:33:57;;;;;;;2.50;2.30;;;;;;;22.08;52.52;98235.03;5022191;28;20225;-31
2022/11/13 06:36:25;;;;;;;2.57;2.37;;;;;;;22.12;52.44;98246.28;5025653;28;20230;-31
2022/11/13 06:38:51;;;;;;;2.70;2.50;;;;;;;22.13;52.43;98240.34;5019722;28;20212;-31
2022/11/13 06:41:20;;;;;;;2.70;2.50;;;;;;;22.12;52.60;98230.91;5030817;28;20267;-31
2022/11/13 06:43:47;;;;;;;2.80;2.60;;;;;;;22.12;52.62;98223.25;5023085;28;20576;-31
2022/11/13 06:46:21;;;;;;;2.60;2.40;;;;;;;22.11;52.62;98224.91;5022343;28;20199;-31
2022/11/13 06:48:48;;;;;;;2.47;2.33;;;;;;;22.09;52.55;98218.00;5019664;28;20668;-32
2022/11/13 06:51:26;;;;;;;2.83;2.63;;;;;;;22.12;52.65;98223.25;5028396;28;20552;-31
2022/11/13 06:53:52;;;;;;;2.77;2.57;;;;;;;22.10;52.54;98222.28;5022548;28;20233;-31
2022/11/13 06:56:19;;;;;;;2.93;2.73;;;;;;;22.09;52.62;98212.88;5019880;28;20221;-31
2022/11/13 06:58:46;;;;;;;2.90;2.70;;;;;;;22.08;52.49;98211.16;5029070;28;20220;-32
2022/11/13 07:01:14;;;;;;;2.60;2.40;;;;;;;22.13;52.80;98207.94;5023939;28;20228;-31
2022/11/13 07:03:40;;;;;;;2.50;2.30;;;;;;;;;;5023673;28;20221;-31
2022/11/13 07:06:14;;;;;;;2.40;2.20;;;;;;;22.13;52.63;98210.50;5026900;28;20575;-32
2022/11/13 07:08:41;;;;;;;2.70;2.50;;;;;;;22.13;52.69;98196.81;5025357;28;20204;-31
2022/11/13 07:11:16;;;;;;;2.73;2.53;;;;;;;22.13;52.66;98191.69;5024898;28;20199;-31
2022/11/13 07:13:43;;;;;;;2.60;2.40;;;;;;;22.13;52.59;98192.56;5025280;28;20240;-31
2022/11/13 07:16:10;;;;;;;2.80;2.60;;;;;;;22.13;52.52;98190.00;5031757;28;20218;-31
2022/11/13 07:18:47;;;;;;;3.60;2.40;;;;;;;22.13;52.51;98184.91;5032146;28;20201;-31
2022/11/13 07:21:14;;;;;;;2.90;2.53;;;;;;;22.14;52.08;98193.47;5031691;28;20209;-31
2022/11/13 07:23:42;;;;;;;4.23;2.30;;;;;;;22.14;52.39;98189.19;5032282;28;20229;-31
2022/11/13 07:26:11;;;;;;;3.07;2.50;;;;;;;22.14;52.33;98193.47;5030067;28;20190;-31
2022/11/13 07:28:38;;;;;;;4.43;2.33;;;;;;;22.10;52.00;98163.41;5031657;28;20579;-31
2022/11/13 07:31:05;;;;;;;2.40;2.30;;;;;;;22.14;52.14;98167.84;5032397;28;20201;-31
2022/11/13 07:33:32;;;;;;;2.93;2.60;;;;;;;22.12;52.06;98165.25;5030603;28;20221;-31
2022/11/13 07:35:58;;;;;;;2.50;2.30;;;;;;;22.13;52.31;98166.09;5033663;28;20679;-31
2022/11/13 07:38:25;;;;;;;2.50;2.30;;;;;;;22.13;52.31;98168.66;5026971;28;20551;-31
2022/11/13 07:40:52;;;;;;;2.60;2.40;;;;;;;22.12;51.92;98161.78;5028272;28;20208;-31
2022/11/13 07:43:18;;;;;;;2.60;2.40;;;;;;;22.12;52.29;98160.13;5032151;28;20214;-31
2022/11/13 07:45:45;;;;;;;2.60;2.40;;;;;;;22.12;52.39;98147.31;5030649;28;20208;-31
2022/11/13 07:48:11;;;;;;;3.77;2.40;;;;;;;22.12;52.32;98149.00;5032581;28;20205;-31
2022/11/13 07:50:38;;;;;;;3.00;2.60;;;;;;;22.11;52.41;98155.78;5034306;28;20200;-31
2022/11/13 07:53:06;;;;;;;2.53;2.30;;;;;;;22.12;52.13;98149.00;5027604;28;20221;-31
2022/11/13 07:55:33;;;;;;;2.40;2.20;;;;;;;22.12;52.29;98142.19;5033283;28;20235;-31
2022/11/13 07:58:00;;;;;;;2.70;2.50;;;;;;;22.12;52.27;98136.19;5027644;28;20206;-31
2022/11/13 08:00:27;;;;;;;2.40;2.20;;;;;;;22.13;52.13;98127.69;5031486;28;20208;-31
2022/11/13 08:02:54;;;;;;;2.43;2.23;;;;;;;22.09;52.04;98119.03;5030973;28;20225;-31
2022/11/13 08:05:21;;;;;;;2.70;2.50;;;;;;;22.11;52.19;98117.41;5031329;28;20587;-31
2022/11/13 08:07:48;;;;;;;2.47;2.27;;;;;;;22.12;52.19;98131.06;5031991;28;20202;-31
2022/11/13 08:10:17;;;;;;;2.30;2.10;;;;;;;22.14;52.00;98150.78;5032520;28;20726;-31
2022/11/13 08:12:44;;;;;;;2.27;2.17;;;;;;;22.12;51.85;98142.19;5031334;28;20229;-31
2022/11/13 08:15:11;;;;;;;2.50;2.30;;;;;;;22.13;51.99;98143.06;5031680;28;20684;-31
2022/11/13 08:17:39;;;;;;;2.67;2.47;;;;;;;22.15;51.96;98147.44;5031304;28;20594;-31
2022/11/13 08:20:06;;;;;;;2.40;2.20;;;;;;;22.15;51.83;98151.66;5026695;28;20225;-31
2022/11/13 08:22:33;;;;;;;3.20;2.30;;;;;;;22.12;51.93;98156.69;5027120;28;20379;-31
2022/11/13 08:25:00;;;;;;;2.30;2.10;;;;;;;22.10;51.99;98153.19;5025730;28;20212;-31
2022/11/13 08:27:27;;;;;;;2.53;2.30;;;;;;;22.14;52.00;98173.81;5028975;28;20209;-31
2022/11/13 08:29:53;;;;;;;2.80;2.60;;;;;;;22.15;52.04;98165.34;5031639;28;20205;-31
2022/11/13 08:32:21;;;;;;;2.90;2.40;;;;;;;22.15;52.15;98172.16;5025201;28;20226;-31
2022/11/13 08:34:48;;;;;;;2.30;2.20;;;;;;;22.14;51.98;98171.25;5031565;28;20284;-31
2022/11/13 08:37:14;;;;;;;2.27;2.13;;;;;;;21.58;52.06;98068.44;5033243;28;20767;-32
2022/11/13 08:39:41;;;;;;;2.50;2.30;;;;;;;22.16;51.74;98174.75;5028242;28;20311;-32
2022/11/13 08:42:07;;;;;;;2.57;2.37;;;;;;;22.16;51.62;98184.13;5024637;28;20229;-31
2022/11/13 08:44:34;;;;;;;2.83;2.20;;;;;;;22.16;51.64;98181.56;5020036;28;20202;-31
2022/11/13 08:47:00;;;;;;;2.60;2.40;;;;;;;22.16;52.08;98182.44;5020788;28;20213;-31
2022/11/13 08:49:27;;;;;;;2.60;2.40;;;;;;;22.16;51.92;98182.44;5021717;28;20217;-31
2022/11/13 08:51:53;;;;;;;2.37;2.27;;;;;;;22.17;52.31;98183.34;5024289;28;20205;-31
2022/11/13 08:54:20;;;;;;;2.30;2.10;;;;;;;22.17;52.15;98173.09;5020573;28;20646;-32
2022/11/13 08:56:47;;;;;;;2.43;2.23;;;;;;;22.18;51.78;98179.94;5022784;28;20225;-31
2022/11/13 08:59:22;;;;;;;2.57;2.33;;;;;;;22.17;51.82;98176.50;5023729;28;20520;-31
2022/11/13 09:01:49;;;;;;;5.40;2.50;;;;;;;22.18;51.72;98160.34;5020216;28;20201;-31
2022/11/13 09:04:15;;;;;;;3.30;2.40;;;;;;;22.17;51.61;98152.59;5024936;28;20216;-31
2022/11/13 09:06:42;;;;;;;2.87;2.53;;;;;;;22.18;51.41;98141.53;5023945;28;20229;-31
2022/11/13 09:09:09;;;;;;;5.00;2.67;;;;;;;22.18;51.23;98136.41;5025129;28;20598;-31
2022/11/13 09:11:35;;;;;;;4.50;2.33;;;;;;;22.17;51.43;98127.84;5025455;28;20742;-31
2022/11/13 09:14:02;;;;;;;2.70;2.50;;;;;;;22.18;51.48;98131.28;5025743;28;20716;-31
2022/11/13 09:16:28;;;;;;;2.83;2.37;;;;;;;22.15;51.33;98118.38;5026527;28;20703;-31
2022/11/13 09:18:55;;;;;;;2.97;2.30;;;;;;;22.18;51.35;98121.06;5024584;28;20684;-31
2022/11/13 09:21:21;;;;;;;4.60;2.93;;;;;;;22.17;51.77;98125.28;5026138;28;20201;-31
2022/11/13 09:23:48;;;;;;;2.37;2.17;;;;;;;22.18;51.02;98123.63;5022324;28;20244;-31
2022/11/13 09:26:15;;;;;;;3.70;2.90;;;;;;;22.18;51.79;98123.63;5025729;28;20209;-31
2022/11/13 09:28:41;;;;;;;3.07;2.30;;;;;;;22.17;51.73;98130.41;5027962;28;20202;-31
2022/11/13 09:31:08;;;;;;;2.30;2.10;;;;;;;22.18;51.94;98123.63;5026026;28;20209;-31
2022/11/13 09:33:34;;;;;;;2.60;2.40;;;;;;;22.18;51.69;98129.63;5025807;28;20785;-31
2022/11/13 09:36:01;;;;;;;5.37;2.47;;;;;;;22.18;51.86;98121.94;5025873;28;20217;-31
2022/11/13 09:38:30;;;;;;;2.37;2.17;;;;;;;22.04;51.83;98094.06;5024541;28;20201;-31
2022/11/13 09:41:08;;;;;;;3.13;2.40;;;;;;;22.18;51.88;98119.38;5030289;28;20201;-31
2022/11/13 09:43:38;;;;;;;3.83;2.37;;;;;;;22.18;51.81;98106.59;5063642;28;20220;-31
2022/11/13 09:46:10;;;;;;;2.60;2.40;;;;;;;22.14;51.95;98098.72;5037332;28;20520;-31
2022/11/13 09:48:38;;;;;;;2.70;2.50;;;;;;;22.19;51.96;98104.88;5032737;28;20198;-31
2022/11/13 09:51:14;;;;;;;2.67;2.47;;;;;;;22.18;51.81;98093.78;5030420;28;20202;-31
2022/11/13 09:53:41;;;;;;;4.27;2.70;;;;;;;22.18;52.02;98100.56;5061086;28;20725;-31
2022/11/13 09:56:26;;;;;;;2.93;2.60;;;;;;;22.18;51.61;98095.44;5010587;28;20252;-31
2022/11/13 09:58:59;;;;;;;3.83;2.30;;;;;;;22.09;51.85;98067.84;5032386;28;20208;-31
2022/11/13 10:01:46;;;;;;;2.97;2.53;;;;;;;22.17;52.03;98078.38;5013222;28;20198;-31
2022/11/13 10:04:13;;;;;;;2.80;2.53;;;;;;;22.14;51.68;98078.25;5031732;28;20225;-31
2022/11/13 10:06:53;;;;;;;2.90;2.60;;;;;;;22.16;51.69;98087.72;5016438;28;20609;-31
2022/11/13 10:09:28;;;;;;;2.60;2.40;;;;;;;22.16;51.69;98076.59;5032980;28;20461;-31
2022/11/13 10:12:03;;;;;;;2.60;2.40;;;;;;;22.16;51.90;98068.91;5027503;28;20208;-31
2022/11/13 10:15:00;;;;;;;2.57;2.30;;;;;;;22.16;51.90;98063.78;5027855;28;20193;-31
2022/11/13 10:17:39;;;;;;;2.60;2.40;;;;;;;22.15;51.96;98055.28;5019715;28;20225;-31
2022/11/13 10:20:26;;;;;;;2.60;2.40;;;;;;;22.16;51.81;98051.00;5032359;28;20207;-32
2022/11/13 10:23:10;;;;;;;2.63;2.33;;;;;;;22.08;51.95;98025.13;5018849;28;20227;-31
2022/11/13 10:25:36;;;;;;;3.23;2.40;;;;;;;22.16;51.74;98036.50;5016634;28;20194;-32
2022/11/13 10:28:38;;;;;;;3.20;2.67;;;;;;;22.17;51.72;98029.72;5029117;28;20285;-31
2022/11/13 10:31:19;;;;;;;3.10;2.70;;;;;;;22.17;51.98;98033.13;5014780;28;20293;-31
2022/11/13 10:33:46;;;;;;;3.73;2.83;;;;;;;22.16;52.31;98023.72;5030439;28;20225;-31
2022/11/13 10:36:33;;;;;;;5.33;3.13;;;;;;;22.17;51.69;98017.75;5034328;28;20218;-31
2022/11/13 10:39:07;;;;;;;4.67;3.70;;;;;;;22.16;51.47;98010.91;5029863;28;20660;-32
2022/11/13 10:41:48;;;;;;;6.03;3.37;;;;;;;22.17;51.43;98007.53;5032234;28;20216;-31
2022/11/13 10:44:24;;;;;;;7.07;3.80;;;;;;;22.16;51.44;97994.69;5031775;28;20210;-31
2022/11/13 10:47:02;;;;;;;6.00;3.47;;;;;;;22.04;51.29;97972.09;5039005;28;20565;-31
2022/11/13 10:49:28;;;;;;;5.00;3.97;;;;;;;22.16;51.33;97987.00;5060494;28;20652;-31
2022/11/13 10:51:56;;;;;;;4.67;3.53;;;;;;;22.17;51.32;97983.63;5036553;28;20201;-31
2022/11/13 10:54:23;;;;;;;4.17;3.57;;;;;;;22.14;51.49;97974.13;5031451;28;20565;-31
2022/11/13 10:57:04;;;;;;;6.10;3.50;;;;;;;22.17;51.67;97974.25;5031348;28;20226;-31
2022/11/13 10:59:42;;;;;;;7.17;3.90;;;;;;;22.12;51.58;97965.56;5031247;28;20209;-31
2022/11/13 11:02:21;;;;;;;3.63;3.10;;;;;;;22.14;51.70;97956.22;5032483;28;20233;-31
2022/11/13 11:04:48;;;;;;;4.90;3.53;;;;;;;22.16;51.74;97961.41;5031801;28;20285;-31
2022/11/13 11:07:16;;;;;;;4.63;3.50;;;;;;;22.12;51.61;97942.53;5028044;28;20198;-31
2022/11/13 11:09:47;;;;;;;4.10;3.33;;;;;;;22.17;51.57;97947.78;5031538;28;20224;-31
2022/11/13 11:12:20;;;;;;;6.33;3.67;;;;;;;22.17;51.68;97948.66;5032455;28;20225;-31
2022/11/13 11:14:55;;;;;;;4.73;3.30;;;;;;;22.17;51.76;97942.69;5033174;28;20206;-31
2022/11/13 11:17:26;;;;;;;5.43;3.57;;;;;;;22.16;51.77;97938.34;5029232;28;20225;-32
2022/11/13 11:20:34;;;;;;;4.37;3.40;;;;;;;22.17;51.80;97923.03;5037442;28;20204;-31
2022/11/13 11:23:24;;;;;;;4.30;3.20;;;;;;;22.19;51.64;97912.84;5019375;28;20232;-31
2022/11/13 11:26:19;;;;;;;4.80;3.60;;;;;;;22.17;51.21;97906.84;5005470;28;20860;-32
2022/11/13 11:28:49;;;;;;;5.30;3.70;;;;;;;22.13;51.07;97897.28;5023035;28;20301;-31
2022/11/13 11:31:27;;;;;;;4.73;3.13;;;;;;;22.19;51.08;97916.28;5008087;28;20213;-31
2022/11/13 11:34:03;;;;;;;5.33;3.43;;;;;;;22.19;51.14;97900.06;5021441;28;20229;-32
2022/11/13 11:36:32;;;;;;;5.20;3.67;;;;;;;22.15;51.12;97891.44;5037728;28;20221;-31
2022/11/13 11:39:17;;;;;;;12.93;4.47;;;;;;;22.18;51.00;97895.75;5005924;28;20224;-31
2022/11/13 11:42:03;;;;;;;7.37;3.63;;;;;;;22.18;51.06;97900.88;5025435;28;20204;-31
2022/11/13 11:44:45;;;;;;;7.93;3.80;;;;;;;22.13;50.03;97893.06;5024157;28;20216;-32
2022/11/13 11:47:15;;;;;;;5.17;3.73;;;;;;;22.15;48.54;97881.19;5024050;28;20693;-31